sensor_id;sensor_type;location;lat;lon;timestamp;pressure;altitude;pressure_sealevel;temperature;humidity
48862;BME280;34681;49.188;-0.374;2023-03-01T00:01:06;102718.50;;;1.84;64.60
48862;BME280;34681;49.188;-0.374;2023-03-01T00:03:32;102727.88;;;2.02;64.61
48862;BME280;34681;49.188;-0.374;2023-03-01T00:05:58;102723.78;;;1.87;64.71
48862;BME280;34681;49.188;-0.374;2023-03-01T00:08:25;102715.78;;;1.84;64.58
48862;BME280;34681;49.188;-0.374;2023-03-01T00:11:02;102720.16;;;1.88;64.50
48862;BME280;34681;49.188;-0.374;2023-03-01T00:13:29;102712.94;;;1.89;64.56
48862;BME280;34681;49.188;-0.374;2023-03-01T00:15:54;102714.69;;;1.91;64.29
48862;BME280;34681;49.188;-0.374;2023-03-01T00:18:19;102714.59;;;1.94;64.05
48862;BME280;34681;49.188;-0.374;2023-03-01T00:20:55;102721.91;;;1.91;64.04
48862;BME280;34681;49.188;-0.374;2023-03-01T00:23:22;102722.25;;;1.79;63.93
48862;BME280;34681;49.188;-0.374;2023-03-01T00:25:48;102719.69;;;1.74;63.49
48862;BME280;34681;49.188;-0.374;2023-03-01T00:28:14;102720.94;;;1.93;63.73
48862;BME280;34681;49.188;-0.374;2023-03-01T00:30:40;102713.41;;;2.05;63.34
48862;BME280;34681;49.188;-0.374;2023-03-01T00:33:05;102719.78;;;2.02;62.22
48862;BME280;34681;49.188;-0.374;2023-03-01T00:35:32;102723.47;;;1.98;63.28
48862;BME280;34681;49.188;-0.374;2023-03-01T00:37:57;102714.00;;;2.16;62.76
48862;BME280;34681;49.188;-0.374;2023-03-01T00:40:31;102715.59;;;1.92;62.50
48862;BME280;34681;49.188;-0.374;2023-03-01T00:42:57;102717.47;;;1.88;61.62
48862;BME280;34681;49.188;-0.374;2023-03-01T00:45:23;102709.19;;;1.94;61.68
48862;BME280;34681;49.188;-0.374;2023-03-01T00:47:49;102715.59;;;1.92;61.31
48862;BME280;34681;49.188;-0.374;2023-03-01T00:50:15;102709.75;;;2.07;61.33
48862;BME280;34681;49.188;-0.374;2023-03-01T00:52:41;102707.94;;;2.06;61.14
48862;BME280;34681;49.188;-0.374;2023-03-01T00:55:07;102704.13;;;2.13;61.30
48862;BME280;34681;49.188;-0.374;2023-03-01T00:57:33;102707.72;;;2.15;60.66
48862;BME280;34681;49.188;-0.374;2023-03-01T00:59:59;102710.31;;;2.18;60.88
48862;BME280;34681;49.188;-0.374;2023-03-01T01:02:24;102702.66;;;2.03;61.47
48862;BME280;34681;49.188;-0.374;2023-03-01T01:04:50;102708.31;;;1.94;60.73
48862;BME280;34681;49.188;-0.374;2023-03-01T01:07:15;102711.19;;;1.88;60.67
48862;BME280;34681;49.188;-0.374;2023-03-01T01:09:41;102707.56;;;1.89;60.51
48862;BME280;34681;49.188;-0.374;2023-03-01T01:12:06;102708.16;;;1.98;60.67
48862;BME280;34681;49.188;-0.374;2023-03-01T01:14:32;102710.41;;;2.15;60.45
48862;BME280;34681;49.188;-0.374;2023-03-01T01:16:58;102712.41;;;2.09;60.01
48862;BME280;34681;49.188;-0.374;2023-03-01T01:19:24;102709.88;;;2.03;60.56
48862;BME280;34681;49.188;-0.374;2023-03-01T01:21:50;102707.13;;;2.04;60.39
48862;BME280;34681;49.188;-0.374;2023-03-01T01:24:16;102708.16;;;2.00;60.86
48862;BME280;34681;49.188;-0.374;2023-03-01T01:26:42;102707.72;;;2.14;60.62
48862;BME280;34681;49.188;-0.374;2023-03-01T01:29:08;102709.69;;;2.09;60.52
48862;BME280;34681;49.188;-0.374;2023-03-01T01:31:35;102707.53;;;1.90;60.61
48862;BME280;34681;49.188;-0.374;2023-03-01T01:34:03;102699.13;;;2.01;60.67
48862;BME280;34681;49.188;-0.374;2023-03-01T01:36:29;102694.66;;;1.98;60.43
48862;BME280;34681;49.188;-0.374;2023-03-01T01:38:55;102705.56;;;1.95;60.53
48862;BME280;34681;49.188;-0.374;2023-03-01T01:41:22;102706.88;;;1.82;60.10
48862;BME280;34681;49.188;-0.374;2023-03-01T01:44:25;102695.03;;;1.86;60.54
48862;BME280;34681;49.188;-0.374;2023-03-01T01:49:27;102696.84;;;1.86;60.13
48862;BME280;34681;49.188;-0.374;2023-03-01T01:52:10;102699.59;;;1.84;59.70
48862;BME280;34681;49.188;-0.374;2023-03-01T01:57:33;102692.91;;;1.66;59.89
48862;BME280;34681;49.188;-0.374;2023-03-01T02:00:08;102690.06;;;1.71;58.87
48862;BME280;34681;49.188;-0.374;2023-03-01T02:02:36;102684.97;;;1.60;59.97
48862;BME280;34681;49.188;-0.374;2023-03-01T02:05:09;102690.13;;;1.69;59.42
48862;BME280;34681;49.188;-0.374;2023-03-01T02:07:38;102685.69;;;1.67;59.44
48862;BME280;34681;49.188;-0.374;2023-03-01T02:10:04;102681.09;;;1.71;58.82
48862;BME280;34681;49.188;-0.374;2023-03-01T02:12:30;102686.97;;;1.85;59.07
48862;BME280;34681;49.188;-0.374;2023-03-01T02:14:56;102687.06;;;1.82;57.88
48862;BME280;34681;49.188;-0.374;2023-03-01T02:17:21;102679.16;;;1.76;58.64
48862;BME280;34681;49.188;-0.374;2023-03-01T02:22:43;102681.63;;;1.83;58.47
48862;BME280;34681;49.188;-0.374;2023-03-01T02:25:24;102679.00;;;1.80;58.99
48862;BME280;34681;49.188;-0.374;2023-03-01T02:30:24;102673.16;;;1.95;59.37
48862;BME280;34681;49.188;-0.374;2023-03-01T02:32:52;102661.03;;;1.79;60.33
48862;BME280;34681;49.188;-0.374;2023-03-01T02:35:20;102672.66;;;1.81;60.80
48862;BME280;34681;49.188;-0.374;2023-03-01T02:37:46;102660.91;;;1.84;60.90
48862;BME280;34681;49.188;-0.374;2023-03-01T02:40:16;102666.00;;;1.94;61.00
48862;BME280;34681;49.188;-0.374;2023-03-01T02:42:57;102658.16;;;2.16;60.51
48862;BME280;34681;49.188;-0.374;2023-03-01T02:45:23;102655.75;;;2.07;60.34
48862;BME280;34681;49.188;-0.374;2023-03-01T02:47:49;102662.25;;;2.00;60.65
48862;BME280;34681;49.188;-0.374;2023-03-01T02:53:21;102652.22;;;2.04;60.88
48862;BME280;34681;49.188;-0.374;2023-03-01T02:55:47;102655.19;;;1.94;60.98
48862;BME280;34681;49.188;-0.374;2023-03-01T02:58:13;102646.22;;;1.94;61.22
48862;BME280;34681;49.188;-0.374;2023-03-01T03:00:41;102655.25;;;1.93;61.60
48862;BME280;34681;49.188;-0.374;2023-03-01T03:03:16;102659.66;;;1.95;61.99
48862;BME280;34681;49.188;-0.374;2023-03-01T03:05:42;102644.03;;;2.07;62.02
48862;BME280;34681;49.188;-0.374;2023-03-01T03:08:08;102648.31;;;2.14;61.89
48862;BME280;34681;49.188;-0.374;2023-03-01T03:10:36;102641.31;;;2.07;62.35
48862;BME280;34681;49.188;-0.374;2023-03-01T03:13:04;102644.66;;;2.16;62.30
48862;BME280;34681;49.188;-0.374;2023-03-01T03:15:30;102649.28;;;2.41;61.91
48862;BME280;34681;49.188;-0.374;2023-03-01T03:17:57;102642.25;;;2.35;62.13
48862;BME280;34681;49.188;-0.374;2023-03-01T03:20:26;102639.97;;;2.51;61.69
48862;BME280;34681;49.188;-0.374;2023-03-01T03:22:54;102646.47;;;2.44;61.98
48862;BME280;34681;49.188;-0.374;2023-03-01T03:25:21;102650.25;;;2.38;62.55
48862;BME280;34681;49.188;-0.374;2023-03-01T03:27:48;102640.78;;;2.25;62.68
48862;BME280;34681;49.188;-0.374;2023-03-01T03:30:16;102640.53;;;2.33;62.30
48862;BME280;34681;49.188;-0.374;2023-03-01T03:32:44;102632.34;;;2.36;62.56
48862;BME280;34681;49.188;-0.374;2023-03-01T03:35:19;102628.75;;;2.35;62.64
48862;BME280;34681;49.188;-0.374;2023-03-01T03:37:46;102627.41;;;2.20;63.21
48862;BME280;34681;49.188;-0.374;2023-03-01T03:40:34;102629.88;;;2.28;63.23
48862;BME280;34681;49.188;-0.374;2023-03-01T03:43:01;102617.94;;;2.35;62.92
48862;BME280;34681;49.188;-0.374;2023-03-01T03:45:27;102627.06;;;2.31;62.80
48862;BME280;34681;49.188;-0.374;2023-03-01T03:47:52;102613.25;;;2.12;63.56
48862;BME280;34681;49.188;-0.374;2023-03-01T03:50:18;102606.31;;;2.33;63.30
48862;BME280;34681;49.188;-0.374;2023-03-01T03:52:44;102603.91;;;2.24;63.02
48862;BME280;34681;49.188;-0.374;2023-03-01T03:55:11;102612.38;;;2.12;62.50
48862;BME280;34681;49.188;-0.374;2023-03-01T03:57:40;102610.66;;;2.09;62.15
48862;BME280;34681;49.188;-0.374;2023-03-01T04:00:09;102607.03;;;2.10;61.81
48862;BME280;34681;49.188;-0.374;2023-03-01T04:02:41;102600.91;;;2.04;61.90
48862;BME280;34681;49.188;-0.374;2023-03-01T04:05:08;102604.25;;;2.12;61.80
48862;BME280;34681;49.188;-0.374;2023-03-01T04:07:35;102598.91;;;2.10;61.55
48862;BME280;34681;49.188;-0.374;2023-03-01T04:10:02;102601.91;;;2.01;61.74
48862;BME280;34681;49.188;-0.374;2023-03-01T04:12:28;102601.94;;;2.00;61.47
48862;BME280;34681;49.188;-0.374;2023-03-01T04:14:53;102597.22;;;2.08;61.45
48862;BME280;34681;49.188;-0.374;2023-03-01T04:17:18;102600.09;;;2.02;62.19
48862;BME280;34681;49.188;-0.374;2023-03-01T04:19:44;102588.75;;;2.18;62.30
48862;BME280;34681;49.188;-0.374;2023-03-01T04:22:14;102586.94;;;2.19;62.69
48862;BME280;34681;49.188;-0.374;2023-03-01T04:24:42;102592.88;;;2.02;63.86
48862;BME280;34681;49.188;-0.374;2023-03-01T04:27:08;102580.19;;;2.04;64.29
48862;BME280;34681;49.188;-0.374;2023-03-01T04:29:34;102580.72;;;2.17;64.04
48862;BME280;34681;49.188;-0.374;2023-03-01T04:31:59;102585.81;;;1.96;64.89
48862;BME280;34681;49.188;-0.374;2023-03-01T04:34:24;102585.81;;;1.96;65.12
48862;BME280;34681;49.188;-0.374;2023-03-01T04:36:52;102586.25;;;2.12;65.06
48862;BME280;34681;49.188;-0.374;2023-03-01T04:39:17;102570.56;;;1.95;65.28
48862;BME280;34681;49.188;-0.374;2023-03-01T04:41:42;102582.41;;;1.91;66.01
48862;BME280;34681;49.188;-0.374;2023-03-01T04:44:08;102587.59;;;1.97;65.74
48862;BME280;34681;49.188;-0.374;2023-03-01T04:46:34;102587.94;;;1.87;65.99
48862;BME280;34681;49.188;-0.374;2023-03-01T04:49:00;102586.28;;;1.81;66.26
48862;BME280;34681;49.188;-0.374;2023-03-01T04:51:25;102581.94;;;1.77;66.77
48862;BME280;34681;49.188;-0.374;2023-03-01T04:53:51;102589.81;;;1.85;66.26
48862;BME280;34681;49.188;-0.374;2023-03-01T04:56:16;102587.00;;;1.88;65.36
48862;BME280;34681;49.188;-0.374;2023-03-01T04:58:46;102579.78;;;1.88;64.99
48862;BME280;34681;49.188;-0.374;2023-03-01T05:01:16;102578.94;;;1.86;65.09
48862;BME280;34681;49.188;-0.374;2023-03-01T05:03:44;102579.19;;;1.79;64.86
48862;BME280;34681;49.188;-0.374;2023-03-01T05:06:09;102583.50;;;1.84;64.41
48862;BME280;34681;49.188;-0.374;2023-03-01T05:08:37;102583.13;;;1.96;64.34
48862;BME280;34681;49.188;-0.374;2023-03-01T05:11:03;102583.69;;;2.08;63.67
48862;BME280;34681;49.188;-0.374;2023-03-01T05:13:28;102580.31;;;2.01;63.48
48862;BME280;34681;49.188;-0.374;2023-03-01T05:15:59;102575.03;;;1.96;63.43
48862;BME280;34681;49.188;-0.374;2023-03-01T05:18:25;102567.69;;;2.02;63.46
48862;BME280;34681;49.188;-0.374;2023-03-01T05:20:52;102563.94;;;2.06;63.36
48862;BME280;34681;49.188;-0.374;2023-03-01T05:23:18;102572.25;;;2.00;63.32
48862;BME280;34681;49.188;-0.374;2023-03-01T05:25:44;102578.44;;;2.03;63.51
48862;BME280;34681;49.188;-0.374;2023-03-01T05:28:12;102573.81;;;2.07;63.51
48862;BME280;34681;49.188;-0.374;2023-03-01T05:30:37;102572.03;;;2.07;63.60
48862;BME280;34681;49.188;-0.374;2023-03-01T05:33:07;102563.16;;;2.02;63.64
48862;BME280;34681;49.188;-0.374;2023-03-01T05:35:39;102565.56;;;2.11;63.47
48862;BME280;34681;49.188;-0.374;2023-03-01T05:38:05;102564.56;;;2.14;63.43
48862;BME280;34681;49.188;-0.374;2023-03-01T05:40:33;102560.34;;;2.05;63.69
48862;BME280;34681;49.188;-0.374;2023-03-01T05:42:58;102562.97;;;2.08;63.53
48862;BME280;34681;49.188;-0.374;2023-03-01T05:45:26;102569.09;;;2.13;63.39
48862;BME280;34681;49.188;-0.374;2023-03-01T05:47:52;102566.44;;;2.12;63.60
48862;BME280;34681;49.188;-0.374;2023-03-01T05:50:39;102565.69;;;2.08;63.96
48862;BME280;34681;49.188;-0.374;2023-03-01T05:53:13;102564.56;;;2.14;63.79
48862;BME280;34681;49.188;-0.374;2023-03-01T05:55:39;102577.06;;;2.18;63.70
48862;BME280;34681;49.188;-0.374;2023-03-01T05:58:10;102564.34;;;2.21;63.57
48862;BME280;34681;49.188;-0.374;2023-03-01T06:00:37;102567.72;;;2.28;63.64
48862;BME280;34681;49.188;-0.374;2023-03-01T06:03:02;102577.13;;;2.16;63.76
48862;BME280;34681;49.188;-0.374;2023-03-01T06:05:28;102573.50;;;2.17;63.90
48862;BME280;34681;49.188;-0.374;2023-03-01T06:07:54;102568.84;;;2.21;63.95
48862;BME280;34681;49.188;-0.374;2023-03-01T06:10:21;102568.97;;;2.18;63.86
48862;BME280;34681;49.188;-0.374;2023-03-01T06:12:47;102561.56;;;2.24;64.01
48862;BME280;34681;49.188;-0.374;2023-03-01T06:15:15;102565.09;;;2.27;63.91
48862;BME280;34681;49.188;-0.374;2023-03-01T06:17:43;102563.75;;;2.40;63.32
48862;BME280;34681;49.188;-0.374;2023-03-01T06:20:19;102574.34;;;2.46;63.38
48862;BME280;34681;49.188;-0.374;2023-03-01T06:22:46;102572.91;;;2.62;63.32
48862;BME280;34681;49.188;-0.374;2023-03-01T06:25:14;102577.53;;;2.59;63.05
48862;BME280;34681;49.188;-0.374;2023-03-01T06:27:41;102558.97;;;2.48;62.67
48862;BME280;34681;49.188;-0.374;2023-03-01T06:30:08;102560.13;;;2.41;63.33
48862;BME280;34681;49.188;-0.374;2023-03-01T06:32:36;102558.31;;;2.41;63.08
48862;BME280;34681;49.188;-0.374;2023-03-01T06:35:03;102556.75;;;2.34;63.62
48862;BME280;34681;49.188;-0.374;2023-03-01T06:37:28;102556.78;;;2.33;63.67
48862;BME280;34681;49.188;-0.374;2023-03-01T06:39:54;102561.91;;;2.42;63.63
48862;BME280;34681;49.188;-0.374;2023-03-01T06:42:19;102568.06;;;2.45;63.95
48862;BME280;34681;49.188;-0.374;2023-03-01T06:44:45;102556.13;;;2.52;63.65
48862;BME280;34681;49.188;-0.374;2023-03-01T06:47:11;102557.06;;;2.51;63.88
48862;BME280;34681;49.188;-0.374;2023-03-01T06:49:36;102567.63;;;2.59;63.27
48862;BME280;34681;49.188;-0.374;2023-03-01T06:52:01;102554.66;;;2.42;64.02
48862;BME280;34681;49.188;-0.374;2023-03-01T06:54:27;102564.59;;;2.42;64.17
48862;BME280;34681;49.188;-0.374;2023-03-01T06:56:53;102562.78;;;2.42;63.90
48862;BME280;34681;49.188;-0.374;2023-03-01T06:59:19;102562.03;;;2.37;64.22
48862;BME280;34681;49.188;-0.374;2023-03-01T07:01:44;102568.88;;;2.49;64.07
48862;BME280;34681;49.188;-0.374;2023-03-01T07:04:11;102567.63;;;2.59;63.83
48862;BME280;34681;49.188;-0.374;2023-03-01T07:06:38;102559.13;;;2.70;63.79
48862;BME280;34681;49.188;-0.374;2023-03-01T07:09:04;102559.56;;;2.58;63.91
48862;BME280;34681;49.188;-0.374;2023-03-01T07:11:29;102550.53;;;2.59;64.13
48862;BME280;34681;49.188;-0.374;2023-03-01T07:13:55;102564.28;;;2.51;64.32
48862;BME280;34681;49.188;-0.374;2023-03-01T07:16:21;102567.69;;;2.58;64.52
48862;BME280;34681;49.188;-0.374;2023-03-01T07:18:46;102561.22;;;2.62;64.45
48862;BME280;34681;49.188;-0.374;2023-03-01T07:21:13;102564.66;;;2.67;64.03
48862;BME280;34681;49.188;-0.374;2023-03-01T07:23:39;102564.78;;;2.89;63.70
48862;BME280;34681;49.188;-0.374;2023-03-01T07:26:04;102565.38;;;2.98;63.45
48862;BME280;34681;49.188;-0.374;2023-03-01T07:28:30;102565.31;;;3.00;63.29
48862;BME280;34681;49.188;-0.374;2023-03-01T07:31:01;102558.69;;;2.84;62.63
48862;BME280;34681;49.188;-0.374;2023-03-01T07:33:26;102562.94;;;2.91;63.00
48862;BME280;34681;49.188;-0.374;2023-03-01T07:35:59;102556.69;;;2.89;62.68
48862;BME280;34681;49.188;-0.374;2023-03-01T07:38:25;102555.78;;;3.15;62.12
48862;BME280;34681;49.188;-0.374;2023-03-01T07:40:51;102554.56;;;3.23;61.48
48862;BME280;34681;49.188;-0.374;2023-03-01T07:43:16;102551.13;;;3.18;60.99
48862;BME280;34681;49.188;-0.374;2023-03-01T07:45:41;102555.53;;;3.21;60.85
48862;BME280;34681;49.188;-0.374;2023-03-01T07:48:07;102555.03;;;3.34;60.17
48862;BME280;34681;49.188;-0.374;2023-03-01T07:50:33;102547.84;;;3.58;60.09
48862;BME280;34681;49.188;-0.374;2023-03-01T07:52:59;102547.25;;;3.74;59.33
48862;BME280;34681;49.188;-0.374;2023-03-01T07:55:24;102537.59;;;3.90;58.70
48862;BME280;34681;49.188;-0.374;2023-03-01T07:57:49;102542.03;;;4.14;57.47
48862;BME280;34681;49.188;-0.374;2023-03-01T08:00:15;102536.50;;;3.94;58.33
48862;BME280;34681;49.188;-0.374;2023-03-01T08:02:40;102546.66;;;4.11;58.93
48862;BME280;34681;49.188;-0.374;2023-03-01T08:05:08;102540.38;;;4.10;58.49
48862;BME280;34681;49.188;-0.374;2023-03-01T08:07:34;102529.16;;;4.19;57.90
48862;BME280;34681;49.188;-0.374;2023-03-01T08:09:59;102538.59;;;4.09;58.07
48862;BME280;34681;49.188;-0.374;2023-03-01T08:12:25;102535.97;;;4.30;58.00
48862;BME280;34681;49.188;-0.374;2023-03-01T08:14:52;102527.50;;;4.37;57.70
48862;BME280;34681;49.188;-0.374;2023-03-01T08:17:18;102532.69;;;4.65;56.71
48862;BME280;34681;49.188;-0.374;2023-03-01T08:19:43;102541.44;;;4.72;56.77
48862;BME280;34681;49.188;-0.374;2023-03-01T08:22:08;102535.81;;;4.76;56.19
48862;BME280;34681;49.188;-0.374;2023-03-01T08:24:34;102535.81;;;4.55;57.33
48862;BME280;34681;49.188;-0.374;2023-03-01T08:26:59;102536.78;;;4.54;57.19
48862;BME280;34681;49.188;-0.374;2023-03-01T08:29:24;102533.19;;;4.53;57.03
48862;BME280;34681;49.188;-0.374;2023-03-01T08:31:50;102533.41;;;4.69;57.28
48862;BME280;34681;49.188;-0.374;2023-03-01T08:34:18;102539.47;;;4.75;56.91
48862;BME280;34681;49.188;-0.374;2023-03-01T08:36:46;102542.94;;;4.99;56.63
48862;BME280;34681;49.188;-0.374;2023-03-01T08:39:16;102550.31;;;4.75;57.41
48862;BME280;34681;49.188;-0.374;2023-03-01T08:41:42;102549.91;;;4.85;56.32
48862;BME280;34681;49.188;-0.374;2023-03-01T08:44:09;102545.63;;;4.79;57.03
48862;BME280;34681;49.188;-0.374;2023-03-01T08:46:38;102546.00;;;4.92;56.58
48862;BME280;34681;49.188;-0.374;2023-03-01T08:49:04;102544.66;;;4.60;57.14
48862;BME280;34681;49.188;-0.374;2023-03-01T08:51:30;102554.63;;;4.59;57.57
48862;BME280;34681;49.188;-0.374;2023-03-01T08:54:01;102558.94;;;4.85;56.80
48862;BME280;34681;49.188;-0.374;2023-03-01T08:56:34;102554.31;;;4.87;56.61
48862;BME280;34681;49.188;-0.374;2023-03-01T08:59:08;102549.50;;;4.73;57.20
48862;BME280;34681;49.188;-0.374;2023-03-01T09:01:34;102552.22;;;4.94;57.16
48862;BME280;34681;49.188;-0.374;2023-03-01T09:03:59;102554.13;;;4.92;56.24
48862;BME280;34681;49.188;-0.374;2023-03-01T09:06:25;102553.84;;;4.77;56.92
48862;BME280;34681;49.188;-0.374;2023-03-01T09:08:50;102555.00;;;4.92;56.77
48862;BME280;34681;49.188;-0.374;2023-03-01T09:11:19;102556.59;;;4.98;56.18
48862;BME280;34681;49.188;-0.374;2023-03-01T09:13:45;102557.00;;;4.89;55.98
48862;BME280;34681;49.188;-0.374;2023-03-01T09:16:13;102557.09;;;4.86;55.89
48862;BME280;34681;49.188;-0.374;2023-03-01T09:18:38;102553.25;;;4.91;55.82
48862;BME280;34681;49.188;-0.374;2023-03-01T09:23:39;102545.75;;;5.37;54.68
48862;BME280;34681;49.188;-0.374;2023-03-01T09:26:09;102546.00;;;5.72;53.98
48862;BME280;34681;49.188;-0.374;2023-03-01T09:28:36;102544.53;;;5.83;52.59
48862;BME280;34681;49.188;-0.374;2023-03-01T09:31:02;102539.44;;;5.76;52.14
48862;BME280;34681;49.188;-0.374;2023-03-01T09:33:29;102534.19;;;5.73;52.27
48862;BME280;34681;49.188;-0.374;2023-03-01T09:35:59;102542.81;;;5.62;50.30
48862;BME280;34681;49.188;-0.374;2023-03-01T09:38:24;102539.94;;;5.46;50.19
48862;BME280;34681;49.188;-0.374;2023-03-01T09:40:50;102531.75;;;5.67;50.35
48862;BME280;34681;49.188;-0.374;2023-03-01T09:43:23;102542.16;;;5.76;50.25
48862;BME280;34681;49.188;-0.374;2023-03-01T09:45:53;102521.06;;;5.62;50.19
48862;BME280;34681;49.188;-0.374;2023-03-01T09:48:22;102525.78;;;5.77;50.24
48862;BME280;34681;49.188;-0.374;2023-03-01T09:50:49;102516.00;;;5.94;50.17
48862;BME280;34681;49.188;-0.374;2023-03-01T09:53:19;102514.72;;;5.63;49.79
48862;BME280;34681;49.188;-0.374;2023-03-01T09:56:16;102531.91;;;5.43;49.76
48862;BME280;34681;49.188;-0.374;2023-03-01T09:59:19;102512.81;;;5.26;50.48
48862;BME280;34681;49.188;-0.374;2023-03-01T10:01:59;102507.41;;;5.45;51.10
48862;BME280;34681;49.188;-0.374;2023-03-01T10:04:48;102512.03;;;5.43;51.35
48862;BME280;34681;49.188;-0.374;2023-03-01T10:07:27;102510.88;;;5.48;49.05
48862;BME280;34681;49.188;-0.374;2023-03-01T10:09:55;102520.81;;;5.68;50.45
48862;BME280;34681;49.188;-0.374;2023-03-01T10:12:26;102517.28;;;5.47;50.25
48862;BME280;34681;49.188;-0.374;2023-03-01T10:15:14;102522.00;;;5.42;51.26
48862;BME280;34681;49.188;-0.374;2023-03-01T10:18:27;102516.13;;;5.32;50.69
48862;BME280;34681;49.188;-0.374;2023-03-01T10:20:55;102503.69;;;5.47;51.89
48862;BME280;34681;49.188;-0.374;2023-03-01T10:23:26;102494.06;;;5.59;52.23
48862;BME280;34681;49.188;-0.374;2023-03-01T10:28:54;102498.25;;;5.47;51.75
48862;BME280;34681;49.188;-0.374;2023-03-01T10:31:26;102479.88;;;5.91;51.57
48862;BME280;34681;49.188;-0.374;2023-03-01T10:33:54;102480.94;;;5.69;51.21
48862;BME280;34681;49.188;-0.374;2023-03-01T10:36:22;102485.03;;;5.77;50.42
48862;BME280;34681;49.188;-0.374;2023-03-01T10:38:53;102466.34;;;5.71;50.37
48862;BME280;34681;49.188;-0.374;2023-03-01T10:41:20;102479.63;;;5.58;51.49
48862;BME280;34681;49.188;-0.374;2023-03-01T10:43:55;102483.22;;;5.59;50.32
48862;BME280;34681;49.188;-0.374;2023-03-01T10:46:33;102477.41;;;5.48;50.02
48862;BME280;34681;49.188;-0.374;2023-03-01T10:49:22;102501.34;;;5.58;50.13
48862;BME280;34681;49.188;-0.374;2023-03-01T10:51:50;102518.59;;;5.57;50.34
48862;BME280;34681;49.188;-0.374;2023-03-01T10:54:25;102472.72;;;5.51;51.07
48862;BME280;34681;49.188;-0.374;2023-03-01T10:56:54;102476.03;;;5.58;50.96
48862;BME280;34681;49.188;-0.374;2023-03-01T10:59:32;102473.16;;;5.42;51.42
48862;BME280;34681;49.188;-0.374;2023-03-01T11:04:28;102449.38;;;5.47;52.11
48862;BME280;34681;49.188;-0.374;2023-03-01T11:07:01;102464.34;;;5.56;51.89
48862;BME280;34681;49.188;-0.374;2023-03-01T11:09:31;102448.34;;;5.69;52.50
48862;BME280;34681;49.188;-0.374;2023-03-01T11:12:03;102462.41;;;5.97;52.12
48862;BME280;34681;49.188;-0.374;2023-03-01T11:14:36;102439.28;;;5.87;52.24
48862;BME280;34681;49.188;-0.374;2023-03-01T11:17:11;102453.91;;;5.84;52.49
48862;BME280;34681;49.188;-0.374;2023-03-01T11:19:38;102448.84;;;5.77;52.83
48862;BME280;34681;49.188;-0.374;2023-03-01T11:22:17;102441.88;;;5.90;53.96
48862;BME280;34681;49.188;-0.374;2023-03-01T11:24:51;102448.19;;;6.09;54.39
48862;BME280;34681;49.188;-0.374;2023-03-01T11:27:35;102439.34;;;6.23;53.53
48862;BME280;34681;49.188;-0.374;2023-03-01T11:32:32;102428.28;;;6.09;54.10
48862;BME280;34681;49.188;-0.374;2023-03-01T11:35:14;102443.28;;;5.99;54.08
48862;BME280;34681;49.188;-0.374;2023-03-01T11:38:42;102435.06;;;6.00;54.72
48862;BME280;34681;49.188;-0.374;2023-03-01T11:40:57;102431.78;;;6.11;54.90
48862;BME280;34681;49.188;-0.374;2023-03-01T11:43:51;102432.53;;;6.14;55.26
48862;BME280;34681;49.188;-0.374;2023-03-01T11:49:12;102419.94;;;6.31;54.94
48862;BME280;34681;49.188;-0.374;2023-03-01T11:51:46;102411.44;;;6.37;55.02
48862;BME280;34681;49.188;-0.374;2023-03-01T11:56:57;102418.09;;;6.66;55.41
48862;BME280;34681;49.188;-0.374;2023-03-01T12:10:20;102391.56;;;6.87;54.94
48862;BME280;34681;49.188;-0.374;2023-03-01T12:18:21;102368.28;;;6.81;55.34
48862;BME280;34681;49.188;-0.374;2023-03-01T12:21:21;102371.84;;;6.99;56.23
48862;BME280;34681;49.188;-0.374;2023-03-01T12:29:01;102360.66;;;7.21;53.96
48862;BME280;34681;49.188;-0.374;2023-03-01T12:31:50;102351.22;;;7.11;54.39
48862;BME280;34681;49.188;-0.374;2023-03-01T12:34:28;102354.50;;;7.33;54.14
48862;BME280;34681;49.188;-0.374;2023-03-01T12:40:40;102332.13;;;7.12;55.07
48862;BME280;34681;49.188;-0.374;2023-03-01T12:49:21;102310.16;;;7.31;54.82
48862;BME280;34681;49.188;-0.374;2023-03-01T12:54:37;102306.03;;;7.40;53.95
48862;BME280;34681;49.188;-0.374;2023-03-01T12:57:17;102311.16;;;7.76;53.54
48862;BME280;34681;49.188;-0.374;2023-03-01T13:02:40;102296.34;;;7.66;53.89
48862;BME280;34681;49.188;-0.374;2023-03-01T13:05:23;102307.56;;;7.75;54.40
48862;BME280;34681;49.188;-0.374;2023-03-01T13:08:10;102313.91;;;7.44;54.83
48862;BME280;34681;49.188;-0.374;2023-03-01T13:13:23;102272.56;;;6.90;55.99
48862;BME280;34681;49.188;-0.374;2023-03-01T13:15:50;102305.34;;;6.71;55.67
48862;BME280;34681;49.188;-0.374;2023-03-01T13:20:47;102272.44;;;6.76;55.98
48862;BME280;34681;49.188;-0.374;2023-03-01T13:23:28;102273.75;;;6.85;55.55
48862;BME280;34681;49.188;-0.374;2023-03-01T13:26:06;102275.81;;;6.97;54.80
48862;BME280;34681;49.188;-0.374;2023-03-01T13:31:07;102248.94;;;6.91;53.54
48862;BME280;34681;49.188;-0.374;2023-03-01T13:33:40;102266.50;;;7.01;54.42
48862;BME280;34681;49.188;-0.374;2023-03-01T13:36:06;102252.34;;;7.10;54.16
48862;BME280;34681;49.188;-0.374;2023-03-01T13:47:15;102266.06;;;7.09;54.44
48862;BME280;34681;49.188;-0.374;2023-03-01T13:52:39;102257.78;;;6.63;54.80
48862;BME280;34681;49.188;-0.374;2023-03-01T13:55:35;102242.75;;;6.56;56.06
48862;BME280;34681;49.188;-0.374;2023-03-01T13:58:05;102253.25;;;6.46;56.90
48862;BME280;34681;49.188;-0.374;2023-03-01T14:00:40;102237.13;;;6.26;57.48
48862;BME280;34681;49.188;-0.374;2023-03-01T14:05:32;102224.13;;;6.15;57.41
48862;BME280;34681;49.188;-0.374;2023-03-01T14:07:58;102231.06;;;6.20;58.11
48862;BME280;34681;49.188;-0.374;2023-03-01T14:10:27;102221.88;;;6.23;58.08
48862;BME280;34681;49.188;-0.374;2023-03-01T14:15:41;102234.00;;;6.33;58.35
48862;BME280;34681;49.188;-0.374;2023-03-01T14:20:38;102223.72;;;6.56;57.10
48862;BME280;34681;49.188;-0.374;2023-03-01T14:23:15;102241.22;;;6.50;56.75
48862;BME280;34681;49.188;-0.374;2023-03-01T14:28:27;102214.88;;;6.35;55.93
48862;BME280;34681;49.188;-0.374;2023-03-01T14:30:56;102214.66;;;6.39;56.41
48862;BME280;34681;49.188;-0.374;2023-03-01T14:38:32;102203.28;;;6.64;54.75
48862;BME280;34681;49.188;-0.374;2023-03-01T14:40:59;102212.13;;;6.68;53.58
48862;BME280;34681;49.188;-0.374;2023-03-01T14:43:29;102196.41;;;6.57;54.84